createdAt,value
2023-06-19T00:00:36.652Z,8.8
2023-06-19T00:02:37.029Z,8.8
2023-06-19T00:04:37.008Z,8.8
2023-06-19T00:06:37.316Z,8.8
2023-06-19T00:08:37.325Z,8.8
2023-06-19T00:10:37.520Z,8.7
2023-06-19T00:12:38.007Z,8.6
2023-06-19T00:14:37.710Z,8.6
2023-06-19T00:16:38.064Z,8.5
2023-06-19T00:18:37.960Z,8.5
2023-06-19T00:20:38.276Z,8.5
2023-06-19T00:22:38.416Z,8.5
2023-06-19T00:24:38.339Z,8.5
2023-06-19T00:26:38.585Z,8.4
2023-06-19T00:28:38.594Z,8.4
2023-06-19T00:30:38.946Z,8.3
2023-06-19T00:32:38.921Z,8.3
2023-06-19T00:34:38.921Z,8.3
2023-06-19T00:36:41.035Z,8.2
2023-06-19T00:38:39.617Z,8
2023-06-19T00:40:39.371Z,8.1
2023-06-19T00:42:39.439Z,8.2
2023-06-19T00:44:40.276Z,8
2023-06-19T00:46:41.321Z,8
2023-06-19T00:48:41.764Z,7.9
2023-06-19T00:50:40.030Z,7.9
2023-06-19T00:52:40.412Z,7.9
2023-06-19T00:54:40.271Z,7.9
2023-06-19T00:56:40.476Z,7.9
2023-06-19T00:58:40.497Z,8.1
2023-06-19T01:00:44.106Z,8.1
2023-06-19T01:02:41.182Z,8.3
2023-06-19T01:04:41.017Z,8.4
2023-06-19T01:06:49.729Z,8.4
2023-06-19T01:08:49.708Z,8.2
2023-06-19T01:10:45.007Z,8.3
2023-06-19T01:12:50.218Z,8.3
2023-06-19T01:14:48.749Z,8.2
2023-06-19T01:16:42.191Z,8.2
2023-06-19T01:18:42.590Z,8.1
2023-06-19T01:20:42.515Z,8.1
2023-06-19T01:22:42.405Z,8.1
2023-06-19T01:24:42.303Z,8.1
2023-06-19T01:26:42.649Z,8.2
2023-06-19T01:28:45.221Z,8.2
2023-06-19T01:30:43.175Z,8.2
2023-06-19T01:32:51.511Z,8.4
2023-06-19T01:34:43.512Z,8.4
2023-06-19T01:36:43.578Z,8.6
2023-06-19T01:38:46.118Z,8.6
2023-06-19T01:40:43.994Z,8.5
2023-06-19T01:42:44.133Z,8.5
2023-06-19T01:44:43.546Z,8.6
2023-06-19T01:46:43.598Z,8.5
2023-06-19T01:48:43.728Z,8.4
2023-06-19T01:50:46.623Z,8.5
2023-06-19T01:52:46.353Z,8.6
2023-06-19T01:54:44.092Z,8.6
2023-06-19T01:56:44.501Z,8.8
2023-06-19T01:58:44.653Z,8.8
2023-06-19T02:00:44.557Z,8.8
2023-06-19T02:02:45.033Z,8.9
2023-06-19T02:04:44.790Z,8.9
2023-06-19T02:06:44.875Z,8.9
2023-06-19T02:08:45.742Z,8.9
2023-06-19T02:10:45.235Z,9
2023-06-19T02:12:45.376Z,9.1
2023-06-19T02:14:46.830Z,9.1
2023-06-19T02:16:45.691Z,9.1
2023-06-19T02:18:45.823Z,9.1
2023-06-19T02:20:46.088Z,9.2
2023-06-19T02:22:46.511Z,9.4
2023-06-19T02:24:47.277Z,9.4
2023-06-19T02:26:46.503Z,9.5
2023-06-19T02:28:46.644Z,9.5
2023-06-19T02:30:46.884Z,9.5
2023-06-19T02:32:47.021Z,9.6
2023-06-19T02:34:47.169Z,9.7
2023-06-19T02:36:47.409Z,9.7
2023-06-19T02:38:49.079Z,9.7
2023-06-19T02:40:47.721Z,9.9
2023-06-19T02:42:48.568Z,10
2023-06-19T02:44:48.074Z,10.1
2023-06-19T02:46:49.908Z,10.1
2023-06-19T02:48:49.791Z,10.3
2023-06-19T02:50:48.853Z,10.3
2023-06-19T02:52:49.009Z,10.5
2023-06-19T02:54:49.317Z,10.6
2023-06-19T02:56:51.652Z,10.6
2023-06-19T02:58:49.577Z,10.7
2023-06-19T03:00:50.503Z,10.8
2023-06-19T03:02:50.236Z,10.8
2023-06-19T03:04:52.540Z,11
2023-06-19T03:06:50.669Z,11.1
2023-06-19T03:08:52.580Z,11.1
2023-06-19T03:10:51.118Z,11.2
2023-06-19T03:12:51.370Z,11.2
2023-06-19T03:14:51.616Z,11.3
2023-06-19T03:16:51.958Z,11.5
2023-06-19T03:18:53.488Z,11.5
2023-06-19T03:20:52.549Z,11.6
2023-06-19T03:22:52.983Z,11.7
2023-06-19T03:24:55.045Z,11.8
2023-06-19T03:26:53.782Z,11.9
2023-06-19T03:28:54.124Z,11.9
2023-06-19T03:30:56.462Z,12.1
2023-06-19T03:33:09.237Z,12.2
2023-06-19T03:34:54.684Z,12.2
2023-06-19T03:36:56.099Z,12.2
2023-06-19T03:38:56.955Z,12.3
2023-06-19T03:40:55.462Z,12.5
2023-06-19T03:42:56.297Z,12.5
2023-06-19T03:44:56.204Z,12.6
2023-06-19T03:46:56.513Z,12.7
2023-06-19T03:48:56.886Z,12.7
2023-06-19T03:50:57.358Z,12.9
2023-06-19T03:52:58.748Z,12.9
2023-06-19T03:54:58.221Z,13
2023-06-19T03:56:58.760Z,13.2
2023-06-19T03:58:59.181Z,13.4
2023-06-19T04:00:59.816Z,13.5
2023-06-19T04:03:00.387Z,13.7
2023-06-19T04:05:00.898Z,13.8
2023-06-19T04:07:01.591Z,13.8
2023-06-19T04:09:02.094Z,14.2
2023-06-19T04:11:02.746Z,14.4
2023-06-19T04:13:04.972Z,14.4
2023-06-19T04:15:04.565Z,14.4
2023-06-19T04:17:04.955Z,14.4
2023-06-19T04:19:05.043Z,14.5
2023-06-19T04:21:06.528Z,14.4
2023-06-19T04:23:06.309Z,14.4
2023-06-19T04:25:08.164Z,14.4
2023-06-19T04:27:07.900Z,14.4
2023-06-19T04:29:07.848Z,14.4
2023-06-19T04:31:08.295Z,14.5
2023-06-19T04:33:08.993Z,14.6
2023-06-19T04:35:09.884Z,14.8
2023-06-19T04:37:09.874Z,14.9
2023-06-19T04:39:10.391Z,14.9
2023-06-19T04:41:11.206Z,14.8
2023-06-19T04:43:11.465Z,14.8
2023-06-19T04:45:12.133Z,14.8
2023-06-19T04:47:12.910Z,14.9
2023-06-19T04:49:13.254Z,15
2023-06-19T04:51:13.800Z,15.1
2023-06-19T04:53:14.526Z,15.2
2023-06-19T04:55:15.093Z,15.2
2023-06-19T04:57:15.802Z,15.3
2023-06-19T04:59:16.598Z,15.3
2023-06-19T05:01:17.720Z,15.5
2023-06-19T05:03:18.200Z,15.5
2023-06-19T05:05:21.540Z,15.6
2023-06-19T05:07:19.557Z,15.6
2023-06-19T05:09:20.288Z,15.6
2023-06-19T05:11:21.116Z,15.5
2023-06-19T05:13:22.026Z,15.5
2023-06-19T05:15:22.760Z,15.7
2023-06-19T05:17:23.604Z,15.8
2023-06-19T05:19:24.289Z,15.8
2023-06-19T05:21:25.148Z,15.8
2023-06-19T05:23:26.136Z,15.8
2023-06-19T05:25:26.867Z,15.8
2023-06-19T05:27:27.603Z,15.9
2023-06-19T05:29:28.471Z,16.1
2023-06-19T05:31:29.328Z,16.1
2023-06-19T05:33:30.076Z,16.1
2023-06-19T05:35:31.072Z,16.1
2023-06-19T05:37:31.832Z,16.2
2023-06-19T05:39:32.674Z,16.3
2023-06-19T05:41:33.524Z,16.4
2023-06-19T05:43:34.486Z,16.4
2023-06-19T05:45:35.665Z,16.4
2023-06-19T05:47:36.143Z,16.4
2023-06-19T05:49:36.885Z,16.4
2023-06-19T05:51:37.512Z,16.4
2023-06-19T05:53:38.433Z,16.4
2023-06-19T05:55:39.394Z,16.4
2023-06-19T05:57:39.907Z,16.4
2023-06-19T05:59:40.705Z,16.6
2023-06-19T06:01:41.433Z,16.6
2023-06-19T06:03:42.093Z,16.7
2023-06-19T06:05:42.862Z,16.8
2023-06-19T06:07:43.610Z,16.8
2023-06-19T06:09:44.498Z,16.8
2023-06-19T06:11:45.313Z,16.9
2023-06-19T06:13:46.181Z,16.9
2023-06-19T06:15:46.910Z,17.1
2023-06-19T06:17:47.799Z,16.9
2023-06-19T06:19:48.558Z,16.9
2023-06-19T06:21:49.515Z,16.8
2023-06-19T06:23:50.272Z,16.8
2023-06-19T06:25:51.338Z,16.8
2023-06-19T06:27:51.883Z,16.9
2023-06-19T06:29:52.642Z,17.1
2023-06-19T06:32:03.943Z,17.2
2023-06-19T06:33:54.352Z,17.3
2023-06-19T06:35:55.751Z,17.3
2023-06-19T06:37:56.130Z,17.3
2023-06-19T06:39:56.909Z,17.2
2023-06-19T06:41:57.721Z,17.2
2023-06-19T06:43:58.582Z,17.2
2023-06-19T06:45:59.537Z,17.2
2023-06-19T06:48:00.430Z,17.4
2023-06-19T06:50:01.395Z,17.3
2023-06-19T06:52:02.214Z,17.3
2023-06-19T06:54:02.988Z,17.5
2023-06-19T06:56:03.846Z,17.5
2023-06-19T06:58:04.544Z,17.7
2023-06-19T07:00:06.980Z,17.9
2023-06-19T07:02:06.346Z,17.9
2023-06-19T07:04:07.219Z,17.7
2023-06-19T07:06:08.006Z,17.7
2023-06-19T07:08:08.891Z,17.7
2023-06-19T07:10:10.201Z,17.9
2023-06-19T07:12:10.632Z,17.9
2023-06-19T07:14:11.450Z,17.9
2023-06-19T07:16:12.322Z,18.1
2023-06-19T07:18:14.248Z,18.2
2023-06-19T07:20:14.448Z,18.4
2023-06-19T07:22:15.127Z,18.1
2023-06-19T07:24:16.302Z,18.1
2023-06-19T07:26:16.497Z,18
2023-06-19T07:28:17.309Z,18
2023-06-19T07:30:18.647Z,18.1
2023-06-19T07:32:19.029Z,18.1
2023-06-19T07:34:19.857Z,18.4
2023-06-19T07:36:20.723Z,18.2
2023-06-19T07:38:21.305Z,18.4
2023-06-19T07:40:22.644Z,18.4
2023-06-19T07:42:23.041Z,18.3
2023-06-19T07:44:23.532Z,18.4
2023-06-19T07:46:24.312Z,18.5
2023-06-19T07:48:24.926Z,18.5
2023-06-19T07:50:27.492Z,18.5
2023-06-19T07:52:26.101Z,18.3
2023-06-19T07:54:26.699Z,18.3
2023-06-19T07:56:27.211Z,18.5
2023-06-19T07:58:28.741Z,18.6
2023-06-19T08:00:28.655Z,18.7
2023-06-19T08:02:28.986Z,18.8
2023-06-19T08:04:29.462Z,18.8
2023-06-19T08:06:29.976Z,19
2023-06-19T08:08:30.487Z,19.4
2023-06-19T08:10:31.273Z,19.6
2023-06-19T08:12:31.574Z,19.7
2023-06-19T08:14:32.021Z,19.7
2023-06-19T08:16:32.609Z,19.4
2023-06-19T08:18:33.002Z,19.4
2023-06-19T08:20:33.468Z,19.4
2023-06-19T08:22:34.150Z,19.5
2023-06-19T08:24:34.954Z,19.5
2023-06-19T08:26:34.983Z,19.5
2023-06-19T08:28:35.587Z,19.7
2023-06-19T08:30:36.334Z,19.5
2023-06-19T08:32:36.439Z,19.5
2023-06-19T08:36:37.442Z,19.7
2023-06-19T08:38:37.978Z,19.7
2023-06-19T08:40:38.646Z,19.9
2023-06-19T08:42:38.935Z,20.1
2023-06-19T08:44:39.657Z,19.9
2023-06-19T08:46:40.052Z,20
2023-06-19T08:48:40.746Z,20.1
2023-06-19T08:50:41.006Z,20.2
2023-06-19T08:52:41.858Z,20.4
2023-06-19T08:54:41.990Z,20.5
2023-06-19T08:56:42.453Z,20.4
2023-06-19T08:58:42.933Z,20.2
2023-06-19T09:00:48.070Z,20.6
2023-06-19T09:02:52.424Z,21
2023-06-19T09:04:44.493Z,21.1
2023-06-19T09:06:49.525Z,21.3
2023-06-19T09:08:45.468Z,21.1
2023-06-19T09:10:56.115Z,21.4
2023-06-19T09:12:57.137Z,21.6
2023-06-19T09:14:47.093Z,21.7
2023-06-19T09:16:47.397Z,21.7
2023-06-19T09:18:54.735Z,21.9
2023-06-19T09:20:49.547Z,22.6
2023-06-19T09:22:48.900Z,22.9
2023-06-19T09:24:50.980Z,22.9
2023-06-19T09:26:51.586Z,22.8
2023-06-19T09:28:50.315Z,23
2023-06-19T09:30:53.629Z,22.7
2023-06-19T09:32:51.533Z,22.5
2023-06-19T09:34:53.507Z,21.9
2023-06-19T09:36:52.264Z,21.8
2023-06-19T09:38:53.344Z,21.7
2023-06-19T09:40:53.664Z,21.9
2023-06-19T09:43:01.329Z,22.2
2023-06-19T09:44:58.786Z,22.2
2023-06-19T09:46:57.082Z,22.1
2023-06-19T09:48:58.935Z,22.1
2023-06-19T09:51:01.353Z,22.2
2023-06-19T09:52:58.234Z,22.4
2023-06-19T09:54:57.192Z,22.2
2023-06-19T09:56:58.459Z,22.2
2023-06-19T09:58:59.772Z,22.2
2023-06-19T10:00:58.822Z,22
2023-06-19T10:02:58.618Z,21.9
2023-06-19T10:04:58.972Z,21.6
2023-06-19T10:06:59.358Z,21.9
2023-06-19T10:09:07.353Z,21.9
2023-06-19T10:11:00.352Z,21.5
2023-06-19T10:13:13.184Z,21.5
2023-06-19T10:15:09.790Z,21.7
2023-06-19T10:17:09.191Z,21.9
2023-06-19T10:19:12.219Z,21.8
2023-06-19T10:21:02.677Z,21.7
2023-06-19T10:23:05.687Z,21.5
2023-06-19T10:25:04.771Z,21.3
2023-06-19T10:27:05.235Z,21.6
2023-06-19T10:29:14.756Z,21.7
2023-06-19T10:31:06.470Z,21.5
2023-06-19T10:33:05.532Z,21.5
2023-06-19T10:35:11.724Z,21.4
2023-06-19T10:37:06.317Z,21.5
2023-06-19T10:39:06.730Z,21.5
2023-06-19T10:41:15.559Z,21.6
2023-06-19T10:43:07.612Z,21.6
2023-06-19T10:45:10.681Z,21.6
2023-06-19T10:47:08.768Z,21.4
2023-06-19T10:49:10.724Z,21.4
2023-06-19T10:51:09.482Z,21.4
2023-06-19T10:53:10.222Z,21.7
2023-06-19T10:55:12.463Z,21.7
2023-06-19T10:57:10.815Z,21.7
2023-06-19T10:59:11.858Z,21.8
2023-06-19T11:01:11.768Z,21.7
2023-06-19T11:03:12.248Z,21.6
2023-06-19T11:05:13.000Z,21.8
2023-06-19T11:07:13.177Z,21.7
2023-06-19T11:09:14.392Z,21.6
2023-06-19T11:11:14.018Z,21.7
2023-06-19T11:13:15.821Z,21.7
2023-06-19T11:15:14.962Z,21.7
2023-06-19T11:17:15.600Z,21.7
2023-06-19T11:19:17.621Z,21.7
2023-06-19T11:21:16.208Z,21.9
2023-06-19T11:23:17.334Z,21.9
2023-06-19T11:25:17.100Z,21.7
2023-06-19T11:27:19.172Z,21.6
2023-06-19T11:29:19.899Z,21.3
2023-06-19T11:31:26.356Z,21.5
2023-06-19T11:33:20.244Z,21.7
2023-06-19T11:35:19.415Z,21.6
2023-06-19T11:37:20.080Z,21.9
2023-06-19T11:39:21.780Z,21.8
2023-06-19T11:41:28.816Z,21.7
2023-06-19T11:43:25.220Z,21.7
2023-06-19T11:45:22.279Z,21.5
2023-06-19T11:47:22.796Z,21.5
2023-06-19T11:49:22.486Z,21.7
2023-06-19T11:51:22.986Z,21.9
2023-06-19T11:53:25.153Z,21.7
2023-06-19T11:55:23.834Z,21.8
2023-06-19T11:57:24.174Z,21.6
2023-06-19T11:59:24.794Z,21.5
2023-06-19T12:01:25.114Z,21.8
2023-06-19T12:03:25.788Z,21.8
2023-06-19T12:05:26.012Z,22
2023-06-19T12:07:26.457Z,22
2023-06-19T12:09:27.256Z,21.8
2023-06-19T12:11:27.453Z,22
2023-06-19T12:13:27.817Z,21.8
2023-06-19T12:15:28.437Z,21.6
2023-06-19T12:17:28.953Z,21.5
2023-06-19T12:19:29.173Z,21.4
2023-06-19T12:21:36.393Z,21.4
2023-06-19T12:23:30.501Z,21.4
2023-06-19T12:25:30.623Z,21.4
2023-06-19T12:27:31.109Z,21.9
2023-06-19T12:29:31.646Z,22.1
2023-06-19T12:31:32.558Z,22.1
2023-06-19T12:33:32.405Z,22.3
2023-06-19T12:35:33.212Z,22.3
2023-06-19T12:37:33.469Z,22.3
2023-06-19T12:39:33.958Z,22.1
2023-06-19T12:41:34.396Z,22.3
2023-06-19T12:43:34.774Z,22.7
2023-06-19T12:45:35.423Z,22.7
2023-06-19T12:47:37.500Z,22.7
2023-06-19T12:49:36.693Z,22.6
2023-06-19T12:51:36.661Z,22.6
2023-06-19T12:53:37.155Z,22.6
2023-06-19T12:55:52.279Z,22.6
2023-06-19T12:57:38.301Z,22.6
2023-06-19T12:59:38.655Z,22.4
2023-06-19T13:01:39.051Z,22.4
2023-06-19T13:03:39.603Z,22.6
2023-06-19T13:05:40.033Z,22.7
2023-06-19T13:07:40.395Z,22.9
2023-06-19T13:09:40.962Z,23.1
2023-06-19T13:11:41.783Z,23
2023-06-19T13:13:41.981Z,23
2023-06-19T13:15:42.701Z,22.6
2023-06-19T13:17:43.207Z,22.4
2023-06-19T13:19:43.475Z,22.2
2023-06-19T13:21:44.219Z,22.1
2023-06-19T13:23:44.679Z,21.9
2023-06-19T13:25:44.981Z,21.9
2023-06-19T13:27:45.551Z,22.1
2023-06-19T13:29:46.048Z,22.1
2023-06-19T13:31:46.428Z,22.1
2023-06-19T13:33:46.886Z,22.1
2023-06-19T13:35:47.764Z,21.9
2023-06-19T13:37:48.344Z,21.9
2023-06-19T13:39:48.309Z,21.9
2023-06-19T13:41:48.868Z,21.9
2023-06-19T13:43:49.248Z,21.9
2023-06-19T13:45:49.869Z,21.8
2023-06-19T13:47:50.377Z,21.7
2023-06-19T13:49:50.805Z,21.8
2023-06-19T13:51:51.155Z,22
2023-06-19T13:53:52.569Z,22
2023-06-19T13:55:52.091Z,22
2023-06-19T13:57:52.670Z,21.8
2023-06-19T13:59:53.039Z,21.8
2023-06-19T14:01:53.427Z,21.6
2023-06-19T14:03:53.962Z,21.6
2023-06-19T14:05:54.554Z,21.6
2023-06-19T14:07:55.372Z,21.6
2023-06-19T14:09:55.260Z,21.8
2023-06-19T14:11:55.970Z,21.8
2023-06-19T14:13:56.291Z,21.7
2023-06-19T14:15:57.085Z,21.7
2023-06-19T14:17:57.392Z,21.5
2023-06-19T14:19:57.509Z,21.6
2023-06-19T14:21:57.988Z,21.6
2023-06-19T14:23:58.604Z,21.6
2023-06-19T14:25:58.846Z,21.3
2023-06-19T14:27:59.428Z,21.3
2023-06-19T14:29:59.806Z,21.3
2023-06-19T14:32:00.401Z,21.3
2023-06-19T14:34:00.633Z,21.3
2023-06-19T14:36:01.254Z,21.1
2023-06-19T14:38:01.721Z,20.9
2023-06-19T14:40:02.217Z,20.9
2023-06-19T14:42:02.934Z,21
2023-06-19T14:44:03.038Z,21
2023-06-19T14:46:03.433Z,20.8
2023-06-19T14:48:04.440Z,20.8
2023-06-19T14:50:05.294Z,20.9
2023-06-19T14:52:05.741Z,20.9
2023-06-19T14:54:05.220Z,21
2023-06-19T14:56:05.662Z,21.1
2023-06-19T14:58:06.259Z,21.1
2023-06-19T15:00:07.571Z,21.2
2023-06-19T15:02:07.058Z,21.2
2023-06-19T15:04:07.557Z,21
2023-06-19T15:06:07.736Z,21.2
2023-06-19T15:08:08.280Z,21.2
2023-06-19T15:10:10.637Z,21.1
2023-06-19T15:12:09.815Z,20.9
2023-06-19T15:14:09.594Z,20.9
2023-06-19T15:16:10.017Z,20.6
2023-06-19T15:18:10.589Z,20.6
2023-06-19T15:20:11.607Z,20.8
2023-06-19T15:22:11.410Z,20.8
2023-06-19T15:24:11.755Z,20.8
2023-06-19T15:26:12.228Z,20.8
2023-06-19T15:28:13.382Z,20.7
2023-06-19T15:30:13.800Z,20.6
2023-06-19T15:32:13.532Z,20.6
2023-06-19T15:34:14.062Z,20.6
2023-06-19T15:36:14.479Z,20.6
2023-06-19T15:38:15.671Z,20.8
2023-06-19T15:40:16.223Z,20.7
2023-06-19T15:42:15.952Z,20.7
2023-06-19T15:44:16.134Z,20.6
2023-06-19T15:46:16.954Z,20.6
2023-06-19T15:48:17.120Z,20.8
2023-06-19T15:50:17.494Z,20.8
2023-06-19T15:52:18.432Z,20.8
2023-06-19T15:54:18.382Z,20.8
2023-06-19T15:56:18.785Z,20.7
2023-06-19T15:58:19.281Z,20.5
2023-06-19T16:00:20.202Z,20.4
2023-06-19T16:02:20.123Z,20.4
2023-06-19T16:04:20.532Z,20.4
2023-06-19T16:06:20.904Z,20.4
2023-06-19T16:08:22.372Z,20.4
2023-06-19T16:10:21.859Z,20.3
2023-06-19T16:12:22.231Z,20.1
2023-06-19T16:14:22.625Z,20.1
2023-06-19T16:16:23.257Z,20.3
2023-06-19T16:18:23.473Z,20.3
2023-06-19T16:20:24.100Z,20.1
2023-06-19T16:22:24.407Z,19.9
2023-06-19T16:24:24.677Z,19.9
2023-06-19T16:26:25.104Z,19.9
2023-06-19T16:28:25.555Z,19.9
2023-06-19T16:30:26.187Z,19.8
2023-06-19T16:32:26.471Z,19.8
2023-06-19T16:34:26.793Z,19.8
2023-06-19T16:36:27.288Z,19.8
2023-06-19T16:38:27.644Z,19.8
2023-06-19T16:40:28.280Z,19.7
2023-06-19T16:42:28.317Z,19.7
2023-06-19T16:44:28.721Z,19.7
2023-06-19T16:46:29.367Z,19.7
2023-06-19T16:48:29.493Z,19.5
2023-06-19T16:50:29.937Z,19.5
2023-06-19T16:52:30.374Z,19.5
2023-06-19T16:54:30.713Z,19.5
2023-06-19T16:56:31.188Z,19.5
2023-06-19T16:58:31.611Z,19.4
2023-06-19T17:00:32.061Z,19.4
2023-06-19T17:02:32.542Z,19.4
2023-06-19T17:04:32.814Z,19.2
2023-06-19T17:06:33.088Z,19.2
2023-06-19T17:08:33.513Z,19.2
2023-06-19T17:10:34.419Z,19.1
2023-06-19T17:12:34.815Z,19.1
2023-06-19T17:14:34.609Z,19.1
2023-06-19T17:16:35.283Z,19
2023-06-19T17:18:35.353Z,19
2023-06-19T17:20:35.788Z,19
2023-06-19T17:22:36.215Z,19
2023-06-19T17:24:36.573Z,18.9
2023-06-19T17:26:36.958Z,18.9
2023-06-19T17:28:37.380Z,18.9
2023-06-19T17:30:37.813Z,18.9
2023-06-19T17:32:38.342Z,18.9
2023-06-19T17:34:38.462Z,18.9
2023-06-19T17:36:39.037Z,18.8
2023-06-19T17:38:39.389Z,18.8
2023-06-19T17:40:39.774Z,18.7
2023-06-19T17:42:40.242Z,18.5
2023-06-19T17:44:40.347Z,18.5
2023-06-19T17:46:41.732Z,18.5
2023-06-19T17:48:40.986Z,18.4
2023-06-19T17:50:41.471Z,18.4
2023-06-19T17:52:41.785Z,18.2
2023-06-19T17:54:42.817Z,18.2
2023-06-19T17:56:43.097Z,18.2
2023-06-19T17:58:42.952Z,18.2
2023-06-19T18:00:43.318Z,18.2
2023-06-19T18:02:43.661Z,18.2
2023-06-19T18:04:43.893Z,18.1
2023-06-19T18:06:44.220Z,18.1
2023-06-19T18:08:44.678Z,18.1
2023-06-19T18:10:44.890Z,18.1
2023-06-19T18:12:45.304Z,18.1
2023-06-19T18:14:45.705Z,18.1
2023-06-19T18:16:46.177Z,18.1
2023-06-19T18:18:46.384Z,18.1
2023-06-19T18:20:46.996Z,18
2023-06-19T18:22:47.360Z,18
2023-06-19T18:24:47.547Z,18
2023-06-19T18:26:47.896Z,18
2023-06-19T18:28:48.474Z,18
2023-06-19T18:30:48.700Z,17.9
2023-06-19T18:32:48.881Z,17.9
2023-06-19T18:34:49.269Z,17.9
2023-06-19T18:36:51.578Z,17.9
2023-06-19T18:38:50.078Z,17.9
2023-06-19T18:40:50.379Z,17.8
2023-06-19T18:42:50.758Z,17.8
2023-06-19T18:44:51.138Z,17.8
2023-06-19T18:46:51.377Z,18
2023-06-19T18:48:51.839Z,17.8
2023-06-19T18:50:52.092Z,17.8
2023-06-19T18:52:52.370Z,17.7
2023-06-19T18:54:52.839Z,17.7
2023-06-19T18:56:53.242Z,17.6
2023-06-19T18:58:53.532Z,17.6
2023-06-19T19:00:54.009Z,17.6
2023-06-19T19:02:54.260Z,17.6
2023-06-19T19:04:54.670Z,17.6
2023-06-19T19:06:54.837Z,17.6
2023-06-19T19:08:55.359Z,17.4
2023-06-19T19:10:55.556Z,17.2
2023-06-19T19:12:55.799Z,17.1
2023-06-19T19:14:56.161Z,17.1
2023-06-19T19:16:56.923Z,17
2023-06-19T19:18:56.872Z,17
2023-06-19T19:20:57.177Z,17
2023-06-19T19:22:57.821Z,17
2023-06-19T19:24:57.849Z,17
2023-06-19T19:26:58.233Z,17
2023-06-19T19:28:58.599Z,16.8
2023-06-19T19:30:58.822Z,16.8
2023-06-19T19:32:59.229Z,16.8
2023-06-19T19:34:59.586Z,16.8
2023-06-19T19:36:59.918Z,16.8
2023-06-19T19:39:00.226Z,16.8
2023-06-19T19:41:00.566Z,16.8
2023-06-19T19:43:00.828Z,16.8
2023-06-19T19:45:03.172Z,16.8
2023-06-19T19:47:01.647Z,17
2023-06-19T19:49:01.955Z,17
2023-06-19T19:51:02.198Z,16.9
2023-06-19T19:53:02.795Z,16.9
2023-06-19T19:55:03.063Z,16.8
2023-06-19T19:57:03.488Z,16.8
2023-06-19T19:59:03.724Z,16.8
2023-06-19T20:01:03.824Z,16.8
2023-06-19T20:03:04.253Z,16.8
2023-06-19T20:05:05.157Z,16.8
2023-06-19T20:07:05.428Z,16.8
2023-06-19T20:09:05.199Z,16.8
2023-06-19T20:11:05.522Z,16.8
2023-06-19T20:13:05.810Z,16.8
2023-06-19T20:15:07.930Z,16.8
2023-06-19T20:17:06.903Z,16.8
2023-06-19T20:19:06.806Z,16.7
2023-06-19T20:21:07.123Z,16.7
2023-06-19T20:23:07.428Z,16.7
2023-06-19T20:25:08.738Z,16.7
2023-06-19T20:27:08.072Z,16.7
2023-06-19T20:29:08.549Z,16.7
2023-06-19T20:31:08.734Z,16.7
2023-06-19T20:33:09.071Z,16.7
2023-06-19T20:35:09.546Z,16.7
2023-06-19T20:37:09.769Z,16.7
2023-06-19T20:39:10.043Z,16.7
2023-06-19T20:41:10.524Z,16.7
2023-06-19T20:43:10.696Z,16.7
2023-06-19T20:45:11.187Z,16.7
2023-06-19T20:47:11.815Z,16.7
2023-06-19T20:49:11.774Z,16.7
2023-06-19T20:51:12.032Z,16.6
2023-06-19T20:53:12.740Z,16.6
2023-06-19T20:55:12.968Z,16.6
2023-06-19T20:57:13.018Z,16.5
2023-06-19T20:59:13.519Z,16.5
2023-06-19T21:01:13.676Z,16.5
2023-06-19T21:03:14.028Z,16.3
2023-06-19T21:05:16.057Z,16.3
2023-06-19T21:07:14.736Z,16.3
2023-06-19T21:09:17.041Z,16.1
2023-06-19T21:11:16.147Z,16.1
2023-06-19T21:13:22.655Z,16.1
2023-06-19T21:15:16.005Z,16.1
2023-06-19T21:17:16.286Z,16.1
2023-06-19T21:19:16.523Z,16
2023-06-19T21:21:16.892Z,15.9
2023-06-19T21:23:17.265Z,15.9
2023-06-19T21:25:17.538Z,15.9
2023-06-19T21:27:17.951Z,15.8
2023-06-19T21:29:18.180Z,15.8
2023-06-19T21:31:18.556Z,15.8
2023-06-19T21:33:19.282Z,15.8
2023-06-19T21:35:19.294Z,15.8
2023-06-19T21:37:19.458Z,15.8
2023-06-19T21:39:19.752Z,15.7
2023-06-19T21:41:20.339Z,15.7
2023-06-19T21:43:20.432Z,15.7
2023-06-19T21:45:20.934Z,15.7
2023-06-19T21:47:21.078Z,15.7
2023-06-19T21:49:21.507Z,15.8
2023-06-19T21:51:21.755Z,15.8
2023-06-19T21:53:22.004Z,15.9
2023-06-19T21:55:22.362Z,15.9
2023-06-19T21:57:22.769Z,16.1
2023-06-19T21:59:23.087Z,16.1
2023-06-19T22:01:23.328Z,16.2
2023-06-19T22:03:23.767Z,16.2
2023-06-19T22:05:24.118Z,16.2
2023-06-19T22:07:24.327Z,16.2
2023-06-19T22:09:24.687Z,16.2
2023-06-19T22:11:24.909Z,16.2
2023-06-19T22:13:25.174Z,16.2
2023-06-19T22:15:25.837Z,16.2
2023-06-19T22:17:25.919Z,16.2
2023-06-19T22:19:26.166Z,16.2
2023-06-19T22:21:26.701Z,16.2
2023-06-19T22:23:26.849Z,16.2
2023-06-19T22:25:27.246Z,16.2
2023-06-19T22:27:27.910Z,16.2
2023-06-19T22:29:27.910Z,16.1
2023-06-19T22:31:28.242Z,16.1
2023-06-19T22:33:28.587Z,16
2023-06-19T22:35:28.850Z,16
2023-06-19T22:37:29.204Z,15.8
2023-06-19T22:39:29.624Z,15.8
2023-06-19T22:41:29.812Z,15.8
2023-06-19T22:43:30.091Z,15.8
2023-06-19T22:45:30.477Z,15.8
2023-06-19T22:47:30.882Z,15.8
2023-06-19T22:49:31.024Z,15.8
2023-06-19T22:51:31.437Z,15.8
2023-06-19T22:53:31.750Z,15.8
2023-06-19T22:55:31.889Z,15.8
2023-06-19T22:57:32.360Z,15.8
2023-06-19T22:59:32.749Z,15.8
2023-06-19T23:01:32.991Z,15.8
2023-06-19T23:03:33.296Z,15.8
2023-06-19T23:05:33.636Z,15.8
2023-06-19T23:07:33.901Z,15.8
2023-06-19T23:09:34.288Z,15.8
2023-06-19T23:11:34.655Z,15.8
2023-06-19T23:13:36.266Z,15.7
2023-06-19T23:15:35.297Z,15.7
2023-06-19T23:17:36.048Z,15.7
2023-06-19T23:19:35.800Z,15.7
2023-06-19T23:21:36.166Z,15.7
2023-06-19T23:23:36.482Z,15.7
2023-06-19T23:25:36.806Z,15.6
2023-06-19T23:27:37.056Z,15.6
2023-06-19T23:29:37.493Z,15.6
2023-06-19T23:31:38.924Z,15.6
2023-06-19T23:33:37.931Z,15.6
2023-06-19T23:35:38.465Z,15.6
2023-06-19T23:37:38.910Z,15.4
2023-06-19T23:39:38.919Z,15.4
2023-06-19T23:41:39.156Z,15.4
2023-06-19T23:43:39.520Z,15.4
2023-06-19T23:45:39.935Z,15.4
2023-06-19T23:47:40.204Z,15.4
2023-06-19T23:49:40.345Z,15.4
2023-06-19T23:51:40.701Z,15.4
2023-06-19T23:53:41.061Z,15.4
2023-06-19T23:55:41.303Z,15.4
2023-06-19T23:57:41.642Z,15.4
2023-06-19T23:59:41.990Z,15.5
